sensor_id;sensor_type;location;lat;lon;timestamp;temperature;humidity
53599;DHT22;39485;45.702;11.364;2023-01-30T00:01:34;0.90;99.90
53599;DHT22;39485;45.702;11.364;2023-01-30T00:04:00;0.90;99.90
53599;DHT22;39485;45.702;11.364;2023-01-30T00:06:26;0.90;99.90
53599;DHT22;39485;45.702;11.364;2023-01-30T00:08:52;0.90;99.90
53599;DHT22;39485;45.702;11.364;2023-01-30T00:11:19;0.80;99.90
53599;DHT22;39485;45.702;11.364;2023-01-30T00:13:47;0.80;99.90
53599;DHT22;39485;45.702;11.364;2023-01-30T00:16:13;0.80;99.90
53599;DHT22;39485;45.702;11.364;2023-01-30T00:18:40;0.80;99.90
53599;DHT22;39485;45.702;11.364;2023-01-30T00:21:08;0.80;99.90
53599;DHT22;39485;45.702;11.364;2023-01-30T00:23:36;0.70;99.90
53599;DHT22;39485;45.702;11.364;2023-01-30T00:26:03;0.70;99.90
53599;DHT22;39485;45.702;11.364;2023-01-30T00:28:29;0.70;99.90
53599;DHT22;39485;45.702;11.364;2023-01-30T00:30:56;0.70;99.90
53599;DHT22;39485;45.702;11.364;2023-01-30T00:33:23;0.70;99.90
53599;DHT22;39485;45.702;11.364;2023-01-30T00:35:51;0.70;99.90
53599;DHT22;39485;45.702;11.364;2023-01-30T00:38:18;0.70;99.90
53599;DHT22;39485;45.702;11.364;2023-01-30T00:40:43;0.70;99.90
53599;DHT22;39485;45.702;11.364;2023-01-30T00:43:12;0.70;99.90
53599;DHT22;39485;45.702;11.364;2023-01-30T00:45:56;0.70;99.90
53599;DHT22;39485;45.702;11.364;2023-01-30T00:48:41;0.60;99.90
53599;DHT22;39485;45.702;11.364;2023-01-30T00:51:07;0.70;99.90
53599;DHT22;39485;45.702;11.364;2023-01-30T00:53:33;0.70;99.90
53599;DHT22;39485;45.702;11.364;2023-01-30T00:55:59;0.70;99.90
53599;DHT22;39485;45.702;11.364;2023-01-30T00:58:25;0.70;99.90
53599;DHT22;39485;45.702;11.364;2023-01-30T01:00:52;0.70;99.90
53599;DHT22;39485;45.702;11.364;2023-01-30T01:03:18;0.70;99.90
53599;DHT22;39485;45.702;11.364;2023-01-30T01:05:44;0.60;99.90
53599;DHT22;39485;45.702;11.364;2023-01-30T01:08:11;0.60;99.90
53599;DHT22;39485;45.702;11.364;2023-01-30T01:10:37;0.70;99.90
53599;DHT22;39485;45.702;11.364;2023-01-30T01:13:03;0.60;99.90
53599;DHT22;39485;45.702;11.364;2023-01-30T01:15:31;0.70;99.90
53599;DHT22;39485;45.702;11.364;2023-01-30T01:17:57;0.60;99.90
53599;DHT22;39485;45.702;11.364;2023-01-30T01:20:24;0.60;99.90
53599;DHT22;39485;45.702;11.364;2023-01-30T01:22:54;0.60;99.90
53599;DHT22;39485;45.702;11.364;2023-01-30T01:25:22;0.60;99.90
53599;DHT22;39485;45.702;11.364;2023-01-30T01:27:48;0.60;99.90
53599;DHT22;39485;45.702;11.364;2023-01-30T01:30:15;0.50;99.90
53599;DHT22;39485;45.702;11.364;2023-01-30T01:32:41;0.50;99.90
53599;DHT22;39485;45.702;11.364;2023-01-30T01:35:08;0.50;99.90
53599;DHT22;39485;45.702;11.364;2023-01-30T01:37:34;0.50;99.90
53599;DHT22;39485;45.702;11.364;2023-01-30T01:40:00;0.50;99.90
53599;DHT22;39485;45.702;11.364;2023-01-30T01:42:44;0.50;99.90
53599;DHT22;39485;45.702;11.364;2023-01-30T01:45:17;0.50;99.90
53599;DHT22;39485;45.702;11.364;2023-01-30T01:48:01;0.50;99.90
53599;DHT22;39485;45.702;11.364;2023-01-30T01:51:01;0.50;99.90
53599;DHT22;39485;45.702;11.364;2023-01-30T01:53:39;0.40;99.90
53599;DHT22;39485;45.702;11.364;2023-01-30T01:56:07;0.40;99.90
53599;DHT22;39485;45.702;11.364;2023-01-30T01:58:46;0.40;99.90
53599;DHT22;39485;45.702;11.364;2023-01-30T02:01:15;0.40;99.90
53599;DHT22;39485;45.702;11.364;2023-01-30T02:03:44;0.40;99.90
53599;DHT22;39485;45.702;11.364;2023-01-30T02:06:12;0.40;99.90
53599;DHT22;39485;45.702;11.364;2023-01-30T02:08:42;0.40;99.90
53599;DHT22;39485;45.702;11.364;2023-01-30T02:11:21;0.30;99.90
53599;DHT22;39485;45.702;11.364;2023-01-30T02:13:49;0.30;99.90
53599;DHT22;39485;45.702;11.364;2023-01-30T02:16:16;0.30;99.90
53599;DHT22;39485;45.702;11.364;2023-01-30T02:18:42;0.30;99.90
53599;DHT22;39485;45.702;11.364;2023-01-30T02:24:25;0.30;99.90
53599;DHT22;39485;45.702;11.364;2023-01-30T02:29:36;0.30;99.90
53599;DHT22;39485;45.702;11.364;2023-01-30T02:32:09;0.20;99.90
53599;DHT22;39485;45.702;11.364;2023-01-30T02:37:36;0.30;99.90
53599;DHT22;39485;45.702;11.364;2023-01-30T02:48:17;0.20;99.90
53599;DHT22;39485;45.702;11.364;2023-01-30T02:50:52;0.20;99.90
53599;DHT22;39485;45.702;11.364;2023-01-30T02:53:19;0.20;99.90
53599;DHT22;39485;45.702;11.364;2023-01-30T02:55:45;0.20;99.90
53599;DHT22;39485;45.702;11.364;2023-01-30T02:58:11;0.20;99.90
53599;DHT22;39485;45.702;11.364;2023-01-30T03:09:15;0.20;99.90
53599;DHT22;39485;45.702;11.364;2023-01-30T03:14:17;0.10;99.90
53599;DHT22;39485;45.702;11.364;2023-01-30T03:16:45;0.10;99.90
53599;DHT22;39485;45.702;11.364;2023-01-30T03:19:12;0.10;99.90
53599;DHT22;39485;45.702;11.364;2023-01-30T03:21:42;0.10;99.90
53599;DHT22;39485;45.702;11.364;2023-01-30T03:24:10;0.10;99.90
53599;DHT22;39485;45.702;11.364;2023-01-30T03:26:51;0.10;99.90
53599;DHT22;39485;45.702;11.364;2023-01-30T03:29:18;0.10;99.90
53599;DHT22;39485;45.702;11.364;2023-01-30T03:31:44;0.00;99.90
53599;DHT22;39485;45.702;11.364;2023-01-30T03:34:10;0.00;99.90
53599;DHT22;39485;45.702;11.364;2023-01-30T03:36:36;0.00;99.90
53599;DHT22;39485;45.702;11.364;2023-01-30T03:39:02;0.00;99.90
53599;DHT22;39485;45.702;11.364;2023-01-30T03:41:27;0.00;99.90
53599;DHT22;39485;45.702;11.364;2023-01-30T03:43:53;0.00;99.90
53599;DHT22;39485;45.702;11.364;2023-01-30T03:46:19;0.00;99.90
53599;DHT22;39485;45.702;11.364;2023-01-30T03:48:45;0.00;99.90
53599;DHT22;39485;45.702;11.364;2023-01-30T03:51:10;0.00;99.90
53599;DHT22;39485;45.702;11.364;2023-01-30T03:53:36;0.00;99.90
53599;DHT22;39485;45.702;11.364;2023-01-30T03:56:01;0.00;99.90
53599;DHT22;39485;45.702;11.364;2023-01-30T03:58:27;-0.10;99.90
53599;DHT22;39485;45.702;11.364;2023-01-30T04:00:55;0.00;99.90
53599;DHT22;39485;45.702;11.364;2023-01-30T04:03:22;-0.10;99.90
53599;DHT22;39485;45.702;11.364;2023-01-30T04:05:47;-0.10;99.90
53599;DHT22;39485;45.702;11.364;2023-01-30T04:08:13;-0.10;99.90
53599;DHT22;39485;45.702;11.364;2023-01-30T04:10:39;-0.10;99.90
53599;DHT22;39485;45.702;11.364;2023-01-30T04:13:05;-0.10;99.90
53599;DHT22;39485;45.702;11.364;2023-01-30T04:15:30;-0.10;99.90
53599;DHT22;39485;45.702;11.364;2023-01-30T04:17:56;-0.10;99.90
53599;DHT22;39485;45.702;11.364;2023-01-30T04:20:22;-0.10;99.90
53599;DHT22;39485;45.702;11.364;2023-01-30T04:22:47;-0.10;99.90
53599;DHT22;39485;45.702;11.364;2023-01-30T04:25:13;-0.10;99.90
53599;DHT22;39485;45.702;11.364;2023-01-30T04:27:39;-0.10;99.90
53599;DHT22;39485;45.702;11.364;2023-01-30T04:30:05;-0.10;99.90
53599;DHT22;39485;45.702;11.364;2023-01-30T04:32:31;-0.10;99.90
53599;DHT22;39485;45.702;11.364;2023-01-30T04:34:56;-0.20;99.90
53599;DHT22;39485;45.702;11.364;2023-01-30T04:37:22;-0.10;99.90
53599;DHT22;39485;45.702;11.364;2023-01-30T04:39:48;-0.20;99.90
53599;DHT22;39485;45.702;11.364;2023-01-30T04:42:14;-0.20;99.90
53599;DHT22;39485;45.702;11.364;2023-01-30T04:44:39;-0.30;99.90
53599;DHT22;39485;45.702;11.364;2023-01-30T04:47:05;-0.20;99.90
53599;DHT22;39485;45.702;11.364;2023-01-30T04:49:30;-0.30;99.90
53599;DHT22;39485;45.702;11.364;2023-01-30T04:51:56;-0.20;99.90
53599;DHT22;39485;45.702;11.364;2023-01-30T04:54:22;-0.30;99.90
53599;DHT22;39485;45.702;11.364;2023-01-30T04:56:48;-0.30;99.90
53599;DHT22;39485;45.702;11.364;2023-01-30T04:59:13;-0.30;99.90
53599;DHT22;39485;45.702;11.364;2023-01-30T05:01:39;-0.30;99.90
53599;DHT22;39485;45.702;11.364;2023-01-30T05:04:06;-0.30;99.90
53599;DHT22;39485;45.702;11.364;2023-01-30T05:06:32;-0.30;99.90
53599;DHT22;39485;45.702;11.364;2023-01-30T05:08:58;-0.30;99.90
53599;DHT22;39485;45.702;11.364;2023-01-30T05:11:25;-0.30;99.90
53599;DHT22;39485;45.702;11.364;2023-01-30T05:13:51;-0.30;99.90
53599;DHT22;39485;45.702;11.364;2023-01-30T05:16:18;-0.30;99.90
53599;DHT22;39485;45.702;11.364;2023-01-30T05:18:44;-0.30;99.90
53599;DHT22;39485;45.702;11.364;2023-01-30T05:23:37;-0.40;99.90
53599;DHT22;39485;45.702;11.364;2023-01-30T05:26:03;-0.40;99.90
53599;DHT22;39485;45.702;11.364;2023-01-30T05:28:29;-0.40;99.90
53599;DHT22;39485;45.702;11.364;2023-01-30T05:31:06;-0.40;99.90
53599;DHT22;39485;45.702;11.364;2023-01-30T05:33:32;-0.40;99.90
53599;DHT22;39485;45.702;11.364;2023-01-30T05:35:58;-0.40;99.90
53599;DHT22;39485;45.702;11.364;2023-01-30T05:38:24;-0.40;99.90
53599;DHT22;39485;45.702;11.364;2023-01-30T05:41:03;-0.50;99.90
53599;DHT22;39485;45.702;11.364;2023-01-30T05:43:29;-0.50;99.90
53599;DHT22;39485;45.702;11.364;2023-01-30T05:45:56;-0.40;99.90
53599;DHT22;39485;45.702;11.364;2023-01-30T05:48:23;-0.50;99.90
53599;DHT22;39485;45.702;11.364;2023-01-30T05:50:53;-0.50;99.90
53599;DHT22;39485;45.702;11.364;2023-01-30T05:53:20;-0.50;99.90
53599;DHT22;39485;45.702;11.364;2023-01-30T05:55:46;-0.50;99.90
53599;DHT22;39485;45.702;11.364;2023-01-30T05:58:18;-0.50;99.90
53599;DHT22;39485;45.702;11.364;2023-01-30T06:00:44;-0.50;99.90
53599;DHT22;39485;45.702;11.364;2023-01-30T06:03:10;-0.50;99.90
53599;DHT22;39485;45.702;11.364;2023-01-30T06:05:37;-0.50;99.90
53599;DHT22;39485;45.702;11.364;2023-01-30T06:08:03;-0.50;99.90
53599;DHT22;39485;45.702;11.364;2023-01-30T06:10:28;-0.60;99.90
53599;DHT22;39485;45.702;11.364;2023-01-30T06:12:54;-0.60;99.90
53599;DHT22;39485;45.702;11.364;2023-01-30T06:15:20;-0.60;99.90
53599;DHT22;39485;45.702;11.364;2023-01-30T06:17:45;-0.60;99.90
53599;DHT22;39485;45.702;11.364;2023-01-30T06:20:11;-0.60;99.90
53599;DHT22;39485;45.702;11.364;2023-01-30T06:22:38;-0.60;99.90
53599;DHT22;39485;45.702;11.364;2023-01-30T06:25:04;-0.60;99.90
53599;DHT22;39485;45.702;11.364;2023-01-30T06:27:29;-0.60;99.90
53599;DHT22;39485;45.702;11.364;2023-01-30T06:29:55;-0.60;99.90
53599;DHT22;39485;45.702;11.364;2023-01-30T06:32:21;-0.60;99.90
53599;DHT22;39485;45.702;11.364;2023-01-30T06:34:46;-0.60;99.90
53599;DHT22;39485;45.702;11.364;2023-01-30T06:37:12;-0.70;99.90
53599;DHT22;39485;45.702;11.364;2023-01-30T06:39:38;-0.70;99.90
53599;DHT22;39485;45.702;11.364;2023-01-30T06:42:03;-0.70;99.90
53599;DHT22;39485;45.702;11.364;2023-01-30T06:44:29;-0.70;99.90
53599;DHT22;39485;45.702;11.364;2023-01-30T06:46:55;-0.70;99.90
53599;DHT22;39485;45.702;11.364;2023-01-30T06:49:20;-0.70;99.90
53599;DHT22;39485;45.702;11.364;2023-01-30T06:51:46;-0.70;99.90
53599;DHT22;39485;45.702;11.364;2023-01-30T06:54:12;-0.70;99.90
53599;DHT22;39485;45.702;11.364;2023-01-30T06:56:37;-0.70;99.90
53599;DHT22;39485;45.702;11.364;2023-01-30T06:59:03;-0.70;99.90
53599;DHT22;39485;45.702;11.364;2023-01-30T07:01:28;-0.60;99.90
53599;DHT22;39485;45.702;11.364;2023-01-30T07:03:54;-0.60;99.90
53599;DHT22;39485;45.702;11.364;2023-01-30T07:06:20;-0.60;99.90
53599;DHT22;39485;45.702;11.364;2023-01-30T07:08:45;-0.50;99.90
53599;DHT22;39485;45.702;11.364;2023-01-30T07:11:11;-0.50;99.90
53599;DHT22;39485;45.702;11.364;2023-01-30T07:13:37;-0.40;99.90
53599;DHT22;39485;45.702;11.364;2023-01-30T07:16:02;-0.30;99.90
53599;DHT22;39485;45.702;11.364;2023-01-30T07:18:28;-0.30;99.90
53599;DHT22;39485;45.702;11.364;2023-01-30T07:20:54;-0.20;99.90
53599;DHT22;39485;45.702;11.364;2023-01-30T07:23:19;-0.10;99.90
53599;DHT22;39485;45.702;11.364;2023-01-30T07:25:45;-0.10;99.90
53599;DHT22;39485;45.702;11.364;2023-01-30T07:28:11;0.00;99.90
53599;DHT22;39485;45.702;11.364;2023-01-30T07:30:36;-0.10;99.90
53599;DHT22;39485;45.702;11.364;2023-01-30T07:33:04;0.00;99.90
53599;DHT22;39485;45.702;11.364;2023-01-30T07:35:32;0.00;99.90
53599;DHT22;39485;45.702;11.364;2023-01-30T07:37:58;0.10;99.90
53599;DHT22;39485;45.702;11.364;2023-01-30T07:40:25;0.10;99.90
53599;DHT22;39485;45.702;11.364;2023-01-30T07:43:12;0.10;99.90
53599;DHT22;39485;45.702;11.364;2023-01-30T07:45:47;0.20;99.90
53599;DHT22;39485;45.702;11.364;2023-01-30T07:48:15;0.20;99.90
53599;DHT22;39485;45.702;11.364;2023-01-30T07:50:41;0.30;99.90
53599;DHT22;39485;45.702;11.364;2023-01-30T07:53:09;0.30;99.90
53599;DHT22;39485;45.702;11.364;2023-01-30T07:55:35;0.40;99.90
53599;DHT22;39485;45.702;11.364;2023-01-30T07:58:01;0.50;99.90
53599;DHT22;39485;45.702;11.364;2023-01-30T08:00:27;0.50;99.90
53599;DHT22;39485;45.702;11.364;2023-01-30T08:02:53;0.60;99.90
53599;DHT22;39485;45.702;11.364;2023-01-30T08:05:18;0.70;99.90
53599;DHT22;39485;45.702;11.364;2023-01-30T08:07:44;0.80;99.90
53599;DHT22;39485;45.702;11.364;2023-01-30T08:10:12;0.80;99.90
53599;DHT22;39485;45.702;11.364;2023-01-30T08:12:39;0.90;99.90
53599;DHT22;39485;45.702;11.364;2023-01-30T08:15:06;1.00;99.90
53599;DHT22;39485;45.702;11.364;2023-01-30T08:17:32;1.00;99.90
53599;DHT22;39485;45.702;11.364;2023-01-30T08:19:58;1.00;99.90
53599;DHT22;39485;45.702;11.364;2023-01-30T08:22:24;1.00;99.90
53599;DHT22;39485;45.702;11.364;2023-01-30T08:24:49;1.00;99.90
53599;DHT22;39485;45.702;11.364;2023-01-30T08:27:15;1.00;99.90
53599;DHT22;39485;45.702;11.364;2023-01-30T08:29:42;1.10;99.90
53599;DHT22;39485;45.702;11.364;2023-01-30T08:32:08;1.10;99.90
53599;DHT22;39485;45.702;11.364;2023-01-30T08:34:33;1.10;99.90
53599;DHT22;39485;45.702;11.364;2023-01-30T08:37:00;1.10;99.90
53599;DHT22;39485;45.702;11.364;2023-01-30T08:39:26;1.10;99.90
53599;DHT22;39485;45.702;11.364;2023-01-30T08:41:51;1.10;99.90
53599;DHT22;39485;45.702;11.364;2023-01-30T08:44:17;1.10;99.90
53599;DHT22;39485;45.702;11.364;2023-01-30T08:46:43;1.00;99.90
53599;DHT22;39485;45.702;11.364;2023-01-30T08:49:09;1.10;99.90
53599;DHT22;39485;45.702;11.364;2023-01-30T08:51:35;1.10;99.90
53599;DHT22;39485;45.702;11.364;2023-01-30T08:54:01;1.10;99.90
53599;DHT22;39485;45.702;11.364;2023-01-30T08:56:26;1.20;99.90
53599;DHT22;39485;45.702;11.364;2023-01-30T08:58:52;1.30;99.90
53599;DHT22;39485;45.702;11.364;2023-01-30T09:01:18;1.30;99.90
53599;DHT22;39485;45.702;11.364;2023-01-30T09:03:43;1.40;99.90
53599;DHT22;39485;45.702;11.364;2023-01-30T09:06:09;1.50;99.90
53599;DHT22;39485;45.702;11.364;2023-01-30T09:08:35;1.60;99.90
53599;DHT22;39485;45.702;11.364;2023-01-30T09:11:03;1.70;99.90
53599;DHT22;39485;45.702;11.364;2023-01-30T09:13:29;1.80;99.90
53599;DHT22;39485;45.702;11.364;2023-01-30T09:15:56;1.80;99.90
53599;DHT22;39485;45.702;11.364;2023-01-30T09:18:22;2.00;99.90
53599;DHT22;39485;45.702;11.364;2023-01-30T09:20:48;2.10;99.90
53599;DHT22;39485;45.702;11.364;2023-01-30T09:23:14;2.20;99.90
53599;DHT22;39485;45.702;11.364;2023-01-30T09:25:40;2.30;99.90
53599;DHT22;39485;45.702;11.364;2023-01-30T09:28:06;2.30;99.90
53599;DHT22;39485;45.702;11.364;2023-01-30T09:30:32;2.50;99.90
53599;DHT22;39485;45.702;11.364;2023-01-30T09:32:58;2.50;99.90
53599;DHT22;39485;45.702;11.364;2023-01-30T09:35:23;2.70;99.90
53599;DHT22;39485;45.702;11.364;2023-01-30T09:37:51;2.70;99.90
53599;DHT22;39485;45.702;11.364;2023-01-30T09:40:20;2.90;99.90
53599;DHT22;39485;45.702;11.364;2023-01-30T09:43:09;2.90;99.90
53599;DHT22;39485;45.702;11.364;2023-01-30T09:45:45;3.00;99.90
53599;DHT22;39485;45.702;11.364;2023-01-30T09:48:24;3.20;99.90
53599;DHT22;39485;45.702;11.364;2023-01-30T09:56:06;3.30;99.90
53599;DHT22;39485;45.702;11.364;2023-01-30T09:58:56;3.30;99.90
53599;DHT22;39485;45.702;11.364;2023-01-30T10:01:50;3.30;99.90
53599;DHT22;39485;45.702;11.364;2023-01-30T10:04:26;3.30;99.90
53599;DHT22;39485;45.702;11.364;2023-01-30T10:07:22;3.30;99.90
53599;DHT22;39485;45.702;11.364;2023-01-30T10:09:58;3.30;99.90
53599;DHT22;39485;45.702;11.364;2023-01-30T10:12:38;3.20;99.90
53599;DHT22;39485;45.702;11.364;2023-01-30T10:26:20;3.20;99.90
53599;DHT22;39485;45.702;11.364;2023-01-30T10:31:24;3.10;99.90
53599;DHT22;39485;45.702;11.364;2023-01-30T10:33:58;3.10;99.90
53599;DHT22;39485;45.702;11.364;2023-01-30T10:36:41;3.10;99.90
53599;DHT22;39485;45.702;11.364;2023-01-30T10:55:54;3.30;99.90
53599;DHT22;39485;45.702;11.364;2023-01-30T10:58:47;3.40;99.90
53599;DHT22;39485;45.702;11.364;2023-01-30T11:10:47;3.70;99.90
53599;DHT22;39485;45.702;11.364;2023-01-30T11:13:36;3.80;99.90
53599;DHT22;39485;45.702;11.364;2023-01-30T11:16:10;3.80;99.90
53599;DHT22;39485;45.702;11.364;2023-01-30T11:19:30;3.80;99.90
53599;DHT22;39485;45.702;11.364;2023-01-30T11:21:54;3.90;99.90
53599;DHT22;39485;45.702;11.364;2023-01-30T11:24:37;4.00;99.90
53599;DHT22;39485;45.702;11.364;2023-01-30T11:29:44;4.00;99.90
53599;DHT22;39485;45.702;11.364;2023-01-30T11:32:18;4.10;99.90
53599;DHT22;39485;45.702;11.364;2023-01-30T11:42:50;4.20;99.90
53599;DHT22;39485;45.702;11.364;2023-01-30T11:45:17;4.20;99.90
53599;DHT22;39485;45.702;11.364;2023-01-30T11:47:56;4.30;99.90
53599;DHT22;39485;45.702;11.364;2023-01-30T11:50:30;4.30;99.90
53599;DHT22;39485;45.702;11.364;2023-01-30T11:53:01;4.30;99.90
53599;DHT22;39485;45.702;11.364;2023-01-30T11:55:27;4.30;99.90
53599;DHT22;39485;45.702;11.364;2023-01-30T11:57:55;4.40;99.90
53599;DHT22;39485;45.702;11.364;2023-01-30T12:00:28;4.40;99.90
53599;DHT22;39485;45.702;11.364;2023-01-30T12:03:04;4.50;99.90
53599;DHT22;39485;45.702;11.364;2023-01-30T12:05:36;4.50;99.90
53599;DHT22;39485;45.702;11.364;2023-01-30T12:08:22;4.50;99.90
53599;DHT22;39485;45.702;11.364;2023-01-30T12:10:57;4.60;99.90
53599;DHT22;39485;45.702;11.364;2023-01-30T12:13:33;4.60;99.90
53599;DHT22;39485;45.702;11.364;2023-01-30T12:16:07;4.60;99.90
53599;DHT22;39485;45.702;11.364;2023-01-30T12:18:41;4.70;99.90
53599;DHT22;39485;45.702;11.364;2023-01-30T12:23:59;4.70;99.90
53599;DHT22;39485;45.702;11.364;2023-01-30T12:26:36;4.80;99.90
53599;DHT22;39485;45.702;11.364;2023-01-30T12:31:45;4.90;99.90
53599;DHT22;39485;45.702;11.364;2023-01-30T12:34:13;4.90;99.90
53599;DHT22;39485;45.702;11.364;2023-01-30T12:50:25;5.10;99.90
53599;DHT22;39485;45.702;11.364;2023-01-30T13:07:34;5.30;99.90
53599;DHT22;39485;45.702;11.364;2023-01-30T13:28:32;5.60;99.90
53599;DHT22;39485;45.702;11.364;2023-01-30T13:31:00;5.70;99.90
53599;DHT22;39485;45.702;11.364;2023-01-30T13:33:32;5.70;99.90
53599;DHT22;39485;45.702;11.364;2023-01-30T13:36:12;5.70;99.90
53599;DHT22;39485;45.702;11.364;2023-01-30T13:38:44;5.70;99.90
53599;DHT22;39485;45.702;11.364;2023-01-30T13:41:15;5.70;99.90
53599;DHT22;39485;45.702;11.364;2023-01-30T13:43:47;5.70;99.90
53599;DHT22;39485;45.702;11.364;2023-01-30T13:46:18;5.80;99.90
53599;DHT22;39485;45.702;11.364;2023-01-30T13:51:50;5.80;99.90
53599;DHT22;39485;45.702;11.364;2023-01-30T14:02:25;5.90;99.90
53599;DHT22;39485;45.702;11.364;2023-01-30T14:04:55;6.10;99.90
53599;DHT22;39485;45.702;11.364;2023-01-30T14:07:24;6.10;99.90
53599;DHT22;39485;45.702;11.364;2023-01-30T14:12:39;6.20;99.90
53599;DHT22;39485;45.702;11.364;2023-01-30T14:15:27;6.20;99.90
53599;DHT22;39485;45.702;11.364;2023-01-30T14:20:47;6.20;99.90
53599;DHT22;39485;45.702;11.364;2023-01-30T14:23:31;6.20;99.90
53599;DHT22;39485;45.702;11.364;2023-01-30T14:25:57;6.20;99.90
53599;DHT22;39485;45.702;11.364;2023-01-30T14:30:58;6.20;99.90
53599;DHT22;39485;45.702;11.364;2023-01-30T14:43:45;6.00;99.90
53599;DHT22;39485;45.702;11.364;2023-01-30T14:51:34;5.90;99.90
53599;DHT22;39485;45.702;11.364;2023-01-30T14:57:00;5.90;99.90
53599;DHT22;39485;45.702;11.364;2023-01-30T15:07:44;5.70;99.90
53599;DHT22;39485;45.702;11.364;2023-01-30T15:10:40;5.70;99.90
53599;DHT22;39485;45.702;11.364;2023-01-30T15:22:00;5.40;99.90
53599;DHT22;39485;45.702;11.364;2023-01-30T15:32:23;5.20;99.90
53599;DHT22;39485;45.702;11.364;2023-01-30T15:34:55;5.20;99.90
53599;DHT22;39485;45.702;11.364;2023-01-30T15:37:33;5.20;99.90
53599;DHT22;39485;45.702;11.364;2023-01-30T15:40:28;5.10;99.90
53599;DHT22;39485;45.702;11.364;2023-01-30T15:48:34;4.90;99.90
53599;DHT22;39485;45.702;11.364;2023-01-30T15:51:02;4.90;99.90
53599;DHT22;39485;45.702;11.364;2023-01-30T15:53:33;4.80;99.90
53599;DHT22;39485;45.702;11.364;2023-01-30T15:56:02;4.80;99.90
53599;DHT22;39485;45.702;11.364;2023-01-30T15:58:29;4.80;99.90
53599;DHT22;39485;45.702;11.364;2023-01-30T16:00:57;4.70;99.90
53599;DHT22;39485;45.702;11.364;2023-01-30T16:03:27;4.60;99.90
53599;DHT22;39485;45.702;11.364;2023-01-30T16:05:55;4.50;99.90
53599;DHT22;39485;45.702;11.364;2023-01-30T16:08:26;4.50;99.90
53599;DHT22;39485;45.702;11.364;2023-01-30T16:10:53;4.40;99.90
53599;DHT22;39485;45.702;11.364;2023-01-30T16:13:19;4.30;99.90
53599;DHT22;39485;45.702;11.364;2023-01-30T16:16:00;4.20;99.90
53599;DHT22;39485;45.702;11.364;2023-01-30T16:18:40;4.10;99.90
53599;DHT22;39485;45.702;11.364;2023-01-30T16:21:15;4.00;99.90
53599;DHT22;39485;45.702;11.364;2023-01-30T16:23:51;3.90;99.90
53599;DHT22;39485;45.702;11.364;2023-01-30T16:26:19;3.80;99.90
53599;DHT22;39485;45.702;11.364;2023-01-30T16:28:47;3.70;99.90
53599;DHT22;39485;45.702;11.364;2023-01-30T16:31:14;3.60;99.90
53599;DHT22;39485;45.702;11.364;2023-01-30T16:33:41;3.60;99.90
53599;DHT22;39485;45.702;11.364;2023-01-30T16:36:29;3.50;99.90
53599;DHT22;39485;45.702;11.364;2023-01-30T16:38:57;3.40;99.90
53599;DHT22;39485;45.702;11.364;2023-01-30T16:41:39;3.30;99.90
53599;DHT22;39485;45.702;11.364;2023-01-30T16:44:20;3.30;99.90
53599;DHT22;39485;45.702;11.364;2023-01-30T16:52:02;3.10;99.90
53599;DHT22;39485;45.702;11.364;2023-01-30T16:54:30;3.10;99.90
53599;DHT22;39485;45.702;11.364;2023-01-30T16:56:58;3.00;99.90
53599;DHT22;39485;45.702;11.364;2023-01-30T17:03:29;2.90;99.90
53599;DHT22;39485;45.702;11.364;2023-01-30T17:29:48;2.30;99.90
53599;DHT22;39485;45.702;11.364;2023-01-30T17:32:14;2.30;99.90
53599;DHT22;39485;45.702;11.364;2023-01-30T17:34:40;2.30;99.90
53599;DHT22;39485;45.702;11.364;2023-01-30T17:37:19;2.20;99.90
53599;DHT22;39485;45.702;11.364;2023-01-30T17:39:47;2.20;99.90
53599;DHT22;39485;45.702;11.364;2023-01-30T17:42:14;2.20;99.90
53599;DHT22;39485;45.702;11.364;2023-01-30T17:44:42;2.10;99.90
53599;DHT22;39485;45.702;11.364;2023-01-30T17:47:11;2.10;99.90
53599;DHT22;39485;45.702;11.364;2023-01-30T17:49:37;2.10;99.90
53599;DHT22;39485;45.702;11.364;2023-01-30T17:52:03;2.10;99.90
53599;DHT22;39485;45.702;11.364;2023-01-30T17:54:28;2.10;99.90
53599;DHT22;39485;45.702;11.364;2023-01-30T17:56:59;2.00;99.90
53599;DHT22;39485;45.702;11.364;2023-01-30T17:59:26;2.00;99.90
53599;DHT22;39485;45.702;11.364;2023-01-30T18:01:52;2.00;99.90
53599;DHT22;39485;45.702;11.364;2023-01-30T18:04:19;1.90;99.90
53599;DHT22;39485;45.702;11.364;2023-01-30T18:06:51;1.90;99.90
53599;DHT22;39485;45.702;11.364;2023-01-30T18:09:19;1.90;99.90
53599;DHT22;39485;45.702;11.364;2023-01-30T18:11:46;1.90;99.90
53599;DHT22;39485;45.702;11.364;2023-01-30T18:14:12;1.90;99.90
53599;DHT22;39485;45.702;11.364;2023-01-30T18:16:38;1.90;99.90
53599;DHT22;39485;45.702;11.364;2023-01-30T18:19:06;1.80;99.90
53599;DHT22;39485;45.702;11.364;2023-01-30T18:21:34;1.80;99.90
53599;DHT22;39485;45.702;11.364;2023-01-30T18:24:01;1.80;99.90
53599;DHT22;39485;45.702;11.364;2023-01-30T18:26:27;1.70;99.90
53599;DHT22;39485;45.702;11.364;2023-01-30T18:28:53;1.70;99.90
53599;DHT22;39485;45.702;11.364;2023-01-30T18:31:18;1.60;99.90
53599;DHT22;39485;45.702;11.364;2023-01-30T18:33:46;1.70;99.90
53599;DHT22;39485;45.702;11.364;2023-01-30T18:36:16;1.60;99.90
53599;DHT22;39485;45.702;11.364;2023-01-30T18:38:43;1.60;99.90
53599;DHT22;39485;45.702;11.364;2023-01-30T18:41:11;1.60;99.90
53599;DHT22;39485;45.702;11.364;2023-01-30T18:43:36;1.60;99.90
53599;DHT22;39485;45.702;11.364;2023-01-30T18:46:08;1.60;99.90
53599;DHT22;39485;45.702;11.364;2023-01-30T18:48:35;1.50;99.90
53599;DHT22;39485;45.702;11.364;2023-01-30T18:51:04;1.50;99.90
53599;DHT22;39485;45.702;11.364;2023-01-30T18:53:31;1.50;99.90
53599;DHT22;39485;45.702;11.364;2023-01-30T18:55:57;1.50;99.90
53599;DHT22;39485;45.702;11.364;2023-01-30T18:58:23;1.50;99.90
53599;DHT22;39485;45.702;11.364;2023-01-30T19:00:48;1.50;99.90
53599;DHT22;39485;45.702;11.364;2023-01-30T19:03:15;1.40;99.90
53599;DHT22;39485;45.702;11.364;2023-01-30T19:05:41;1.40;99.90
53599;DHT22;39485;45.702;11.364;2023-01-30T19:08:06;1.40;99.90
53599;DHT22;39485;45.702;11.364;2023-01-30T19:10:32;1.40;99.90
53599;DHT22;39485;45.702;11.364;2023-01-30T19:12:58;1.40;99.90
53599;DHT22;39485;45.702;11.364;2023-01-30T19:15:42;1.40;99.90
53599;DHT22;39485;45.702;11.364;2023-01-30T19:18:08;1.30;99.90
53599;DHT22;39485;45.702;11.364;2023-01-30T19:20:33;1.30;99.90
53599;DHT22;39485;45.702;11.364;2023-01-30T19:22:59;1.30;99.90
53599;DHT22;39485;45.702;11.364;2023-01-30T19:25:25;1.30;99.90
53599;DHT22;39485;45.702;11.364;2023-01-30T19:27:50;1.20;99.90
53599;DHT22;39485;45.702;11.364;2023-01-30T19:30:16;1.20;99.90
53599;DHT22;39485;45.702;11.364;2023-01-30T19:32:42;1.20;99.90
53599;DHT22;39485;45.702;11.364;2023-01-30T19:35:08;1.20;99.90
53599;DHT22;39485;45.702;11.364;2023-01-30T19:37:34;1.20;99.90
53599;DHT22;39485;45.702;11.364;2023-01-30T19:40:00;1.20;99.90